アルハンゲリスク の空港の天気 - METARとTAF

Arhangel'Sk ( ULAA / ARH ) - ロシア アルハンゲリスク
飛行場実況気象(Metar)
観測時間08/25 21:30 MSK (08/25 18:30 UTC)
風向・風速不定 1m/s
視程10km以上
天気現象
全天の8割程度の雲 雲底高度 940m
気温9℃
湿度93%
気圧1023hPa
METARULAA 251830Z VRB01MPS 9999 BKN031 09/08 Q1023 R08/CLRD68 NOSIG RMK QFE766/1022
過去の天気等 Google飛行場航空写真 Wunderground天気予報

過去48時間のMETAR

飛行場予報(TAF)
発表時間: 8/25 20:00 MSK (8/25 17:00 UTC)
予報対象時間: 25日21時 MSK ~ 26日21時 MSK
風向・風速西 3m/s
視程10km以上
全天の8割程度の雲 雲底高度 370m
25日21時 MSK ~ 26日3時 MSK に一時的に
風向・風速西南西 4m/s
視程5000m
天気現象弱いしゅう雨 もや
全天の8割程度の積乱雲 雲底高度 370m
26日3時 MSK から
風向・風速南南西 4m/s
視程5000m
天気現象弱い雨
全天の8割程度の雲 雲底高度 370m
26日3時 MSK ~ 26日9時 MSK に一時的に
風向・風速南 4m/s 瞬間風速 10m/s
視程3100m
天気現象弱いしゅう雨
全天の8割程度の雲 雲底高度 150m
全天の8割程度の積乱雲 雲底高度 340m
26日9時 MSK ~ 26日21時 MSK に一時的に
風向・風速南西 5m/s 瞬間風速 14m/s
視程1000m
天気現象しゅう雨
全天の8割程度の雲 雲底高度 120m
全天の8割程度の積乱雲 雲底高度 340m
TAF ULAA 251700Z 2518/2618 28003MPS 9999 BKN012
TEMPO 2518/2524 24004MPS 5000 -SHRA BR BKN012CB
FM260000 20004MPS 5000 -RA BKN012
TEMPO 2600/2606 18004G10MPS 3100 -SHRA BKN005 BKN011CB
TEMPO 2606/2618 23005G14MPS 1000 SHRA BKN004 BKN011CB